sensor_id;sensor_type;location;lat;lon;timestamp;temperature;humidity
17296;DHT22;8766;51.480;6.872;2022-07-23T00:00:13;20.50;55.50
17296;DHT22;8766;51.480;6.872;2022-07-23T00:02:42;20.50;55.60
17296;DHT22;8766;51.480;6.872;2022-07-23T00:05:09;20.50;55.70
17296;DHT22;8766;51.480;6.872;2022-07-23T00:07:36;20.40;55.70
17296;DHT22;8766;51.480;6.872;2022-07-23T00:10:04;20.40;55.70
17296;DHT22;8766;51.480;6.872;2022-07-23T00:12:31;20.40;55.80
17296;DHT22;8766;51.480;6.872;2022-07-23T00:14:58;20.40;55.80
17296;DHT22;8766;51.480;6.872;2022-07-23T00:17:25;20.40;55.90
17296;DHT22;8766;51.480;6.872;2022-07-23T00:19:54;20.30;55.90
17296;DHT22;8766;51.480;6.872;2022-07-23T00:22:20;20.40;56.00
17296;DHT22;8766;51.480;6.872;2022-07-23T00:24:47;20.40;55.90
17296;DHT22;8766;51.480;6.872;2022-07-23T00:27:14;20.40;55.80
17296;DHT22;8766;51.480;6.872;2022-07-23T00:29:41;20.40;55.80
17296;DHT22;8766;51.480;6.872;2022-07-23T00:32:08;20.40;55.80
17296;DHT22;8766;51.480;6.872;2022-07-23T00:34:35;20.40;55.80
17296;DHT22;8766;51.480;6.872;2022-07-23T00:37:04;20.40;55.80
17296;DHT22;8766;51.480;6.872;2022-07-23T00:39:31;20.40;55.80
17296;DHT22;8766;51.480;6.872;2022-07-23T00:41:58;20.40;55.90
17296;DHT22;8766;51.480;6.872;2022-07-23T00:44:26;20.30;55.90
17296;DHT22;8766;51.480;6.872;2022-07-23T00:46:55;20.30;55.90
17296;DHT22;8766;51.480;6.872;2022-07-23T00:49:24;20.30;56.00
17296;DHT22;8766;51.480;6.872;2022-07-23T00:51:51;20.30;56.00
17296;DHT22;8766;51.480;6.872;2022-07-23T00:54:21;20.20;56.00
17296;DHT22;8766;51.480;6.872;2022-07-23T00:56:48;20.20;56.10
17296;DHT22;8766;51.480;6.872;2022-07-23T00:59:15;20.20;56.10
17296;DHT22;8766;51.480;6.872;2022-07-23T01:01:42;20.20;56.20
17296;DHT22;8766;51.480;6.872;2022-07-23T01:04:11;20.20;56.20
17296;DHT22;8766;51.480;6.872;2022-07-23T01:06:38;20.20;56.20
17296;DHT22;8766;51.480;6.872;2022-07-23T01:09:06;20.10;56.20
17296;DHT22;8766;51.480;6.872;2022-07-23T01:11:36;20.10;56.30
17296;DHT22;8766;51.480;6.872;2022-07-23T01:14:11;20.10;56.40
17296;DHT22;8766;51.480;6.872;2022-07-23T01:16:38;20.10;56.50
17296;DHT22;8766;51.480;6.872;2022-07-23T01:19:07;20.00;56.40
17296;DHT22;8766;51.480;6.872;2022-07-23T01:21:36;20.00;56.50
17296;DHT22;8766;51.480;6.872;2022-07-23T01:24:06;20.00;56.50
17296;DHT22;8766;51.480;6.872;2022-07-23T01:26:33;20.00;56.60
17296;DHT22;8766;51.480;6.872;2022-07-23T01:29:00;19.90;56.60
17296;DHT22;8766;51.480;6.872;2022-07-23T01:31:27;20.00;56.70
17296;DHT22;8766;51.480;6.872;2022-07-23T01:33:54;20.00;56.60
17296;DHT22;8766;51.480;6.872;2022-07-23T01:36:22;20.00;56.50
17296;DHT22;8766;51.480;6.872;2022-07-23T01:38:49;20.00;56.40
17296;DHT22;8766;51.480;6.872;2022-07-23T01:41:17;20.00;56.40
17296;DHT22;8766;51.480;6.872;2022-07-23T01:43:44;20.00;56.30
17296;DHT22;8766;51.480;6.872;2022-07-23T01:46:11;20.00;56.30
17296;DHT22;8766;51.480;6.872;2022-07-23T01:48:39;20.10;56.40
17296;DHT22;8766;51.480;6.872;2022-07-23T01:51:06;20.10;56.40
17296;DHT22;8766;51.480;6.872;2022-07-23T01:53:33;20.00;56.30
17296;DHT22;8766;51.480;6.872;2022-07-23T01:56:00;20.00;56.40
17296;DHT22;8766;51.480;6.872;2022-07-23T01:58:28;20.00;56.30
17296;DHT22;8766;51.480;6.872;2022-07-23T02:00:55;20.10;56.40
17296;DHT22;8766;51.480;6.872;2022-07-23T02:03:22;20.00;56.40
17296;DHT22;8766;51.480;6.872;2022-07-23T02:05:49;20.00;56.40
17296;DHT22;8766;51.480;6.872;2022-07-23T02:08:17;20.00;56.50
17296;DHT22;8766;51.480;6.872;2022-07-23T02:10:44;20.00;56.60
17296;DHT22;8766;51.480;6.872;2022-07-23T02:13:11;19.90;56.60
17296;DHT22;8766;51.480;6.872;2022-07-23T02:15:40;19.90;56.60
17296;DHT22;8766;51.480;6.872;2022-07-23T02:18:07;19.90;56.70
17296;DHT22;8766;51.480;6.872;2022-07-23T02:20:34;19.80;56.70
17296;DHT22;8766;51.480;6.872;2022-07-23T02:23:04;19.80;56.80
17296;DHT22;8766;51.480;6.872;2022-07-23T02:25:32;19.80;56.90
17296;DHT22;8766;51.480;6.872;2022-07-23T02:27:59;19.70;56.90
17296;DHT22;8766;51.480;6.872;2022-07-23T02:30:26;19.70;57.00
17296;DHT22;8766;51.480;6.872;2022-07-23T02:32:55;19.60;57.10
17296;DHT22;8766;51.480;6.872;2022-07-23T02:35:22;19.60;57.20
17296;DHT22;8766;51.480;6.872;2022-07-23T02:37:49;19.50;57.30
17296;DHT22;8766;51.480;6.872;2022-07-23T02:40:16;19.50;57.40
17296;DHT22;8766;51.480;6.872;2022-07-23T02:42:43;19.50;57.50
17296;DHT22;8766;51.480;6.872;2022-07-23T02:45:10;19.40;57.50
17296;DHT22;8766;51.480;6.872;2022-07-23T02:47:37;19.50;57.50
17296;DHT22;8766;51.480;6.872;2022-07-23T02:50:06;19.40;57.40
17296;DHT22;8766;51.480;6.872;2022-07-23T02:52:34;19.50;57.40
17296;DHT22;8766;51.480;6.872;2022-07-23T02:55:01;19.50;57.30
17296;DHT22;8766;51.480;6.872;2022-07-23T02:57:28;19.50;57.30
17296;DHT22;8766;51.480;6.872;2022-07-23T02:59:55;19.50;57.30
17296;DHT22;8766;51.480;6.872;2022-07-23T03:02:21;19.50;57.30
17296;DHT22;8766;51.480;6.872;2022-07-23T03:04:49;19.50;57.30
17296;DHT22;8766;51.480;6.872;2022-07-23T03:07:18;19.50;57.30
17296;DHT22;8766;51.480;6.872;2022-07-23T03:09:45;19.40;57.30
17296;DHT22;8766;51.480;6.872;2022-07-23T03:12:12;19.40;57.40
17296;DHT22;8766;51.480;6.872;2022-07-23T03:14:39;19.40;57.40
17296;DHT22;8766;51.480;6.872;2022-07-23T03:17:06;19.30;57.50
17296;DHT22;8766;51.480;6.872;2022-07-23T03:19:33;19.30;57.60
17296;DHT22;8766;51.480;6.872;2022-07-23T03:22:00;19.20;57.70
17296;DHT22;8766;51.480;6.872;2022-07-23T03:24:28;19.20;57.80
17296;DHT22;8766;51.480;6.872;2022-07-23T03:27:09;19.10;57.90
17296;DHT22;8766;51.480;6.872;2022-07-23T03:29:36;19.10;58.10
17296;DHT22;8766;51.480;6.872;2022-07-23T03:32:04;19.00;58.10
17296;DHT22;8766;51.480;6.872;2022-07-23T03:34:31;19.00;58.20
17296;DHT22;8766;51.480;6.872;2022-07-23T03:36:58;19.00;58.30
17296;DHT22;8766;51.480;6.872;2022-07-23T03:39:25;18.90;58.30
17296;DHT22;8766;51.480;6.872;2022-07-23T03:41:53;18.90;58.30
17296;DHT22;8766;51.480;6.872;2022-07-23T03:44:20;18.90;58.40
17296;DHT22;8766;51.480;6.872;2022-07-23T03:46:47;18.80;58.40
17296;DHT22;8766;51.480;6.872;2022-07-23T03:49:14;18.80;58.40
17296;DHT22;8766;51.480;6.872;2022-07-23T03:51:41;18.80;58.50
17296;DHT22;8766;51.480;6.872;2022-07-23T03:54:08;18.80;58.50
17296;DHT22;8766;51.480;6.872;2022-07-23T03:56:35;18.80;58.50
17296;DHT22;8766;51.480;6.872;2022-07-23T03:59:03;18.80;58.60
17296;DHT22;8766;51.480;6.872;2022-07-23T04:01:30;18.70;58.50
17296;DHT22;8766;51.480;6.872;2022-07-23T04:03:57;18.70;58.50
17296;DHT22;8766;51.480;6.872;2022-07-23T04:06:24;18.70;58.50
17296;DHT22;8766;51.480;6.872;2022-07-23T04:08:51;18.70;58.50
17296;DHT22;8766;51.480;6.872;2022-07-23T04:11:18;18.80;58.50
17296;DHT22;8766;51.480;6.872;2022-07-23T04:13:45;18.80;58.40
17296;DHT22;8766;51.480;6.872;2022-07-23T04:16:14;18.80;58.40
17296;DHT22;8766;51.480;6.872;2022-07-23T04:18:41;18.80;58.30
17296;DHT22;8766;51.480;6.872;2022-07-23T04:21:08;18.80;58.30
17296;DHT22;8766;51.480;6.872;2022-07-23T04:23:35;18.90;58.30
17296;DHT22;8766;51.480;6.872;2022-07-23T04:26:02;18.90;58.20
17296;DHT22;8766;51.480;6.872;2022-07-23T04:28:29;18.90;58.10
17296;DHT22;8766;51.480;6.872;2022-07-23T04:30:56;19.00;58.10
17296;DHT22;8766;51.480;6.872;2022-07-23T04:33:25;19.00;58.00
17296;DHT22;8766;51.480;6.872;2022-07-23T04:35:52;19.00;57.90
17296;DHT22;8766;51.480;6.872;2022-07-23T04:38:19;19.10;57.80
17296;DHT22;8766;51.480;6.872;2022-07-23T04:40:46;19.10;57.70
17296;DHT22;8766;51.480;6.872;2022-07-23T04:43:13;19.20;57.60
17296;DHT22;8766;51.480;6.872;2022-07-23T04:45:40;19.20;57.50
17296;DHT22;8766;51.480;6.872;2022-07-23T04:48:07;19.30;57.50
17296;DHT22;8766;51.480;6.872;2022-07-23T04:50:35;19.30;57.30
17296;DHT22;8766;51.480;6.872;2022-07-23T04:53:02;19.40;57.30
17296;DHT22;8766;51.480;6.872;2022-07-23T04:55:29;19.40;57.20
17296;DHT22;8766;51.480;6.872;2022-07-23T04:57:56;19.50;57.10
17296;DHT22;8766;51.480;6.872;2022-07-23T05:00:23;19.60;57.00
17296;DHT22;8766;51.480;6.872;2022-07-23T05:02:50;19.60;56.90
17296;DHT22;8766;51.480;6.872;2022-07-23T05:05:17;19.70;56.70
17296;DHT22;8766;51.480;6.872;2022-07-23T05:07:45;19.80;56.60
17296;DHT22;8766;51.480;6.872;2022-07-23T05:10:12;19.90;56.40
17296;DHT22;8766;51.480;6.872;2022-07-23T05:12:39;20.00;56.30
17296;DHT22;8766;51.480;6.872;2022-07-23T05:15:07;20.00;56.20
17296;DHT22;8766;51.480;6.872;2022-07-23T05:17:34;20.40;55.90
17296;DHT22;8766;51.480;6.872;2022-07-23T05:20:01;21.50;54.10
17296;DHT22;8766;51.480;6.872;2022-07-23T05:22:28;22.70;51.80
17296;DHT22;8766;51.480;6.872;2022-07-23T05:24:57;23.90;49.70
17296;DHT22;8766;51.480;6.872;2022-07-23T05:27:24;24.80;48.10
17296;DHT22;8766;51.480;6.872;2022-07-23T05:29:50;25.60;46.90
17296;DHT22;8766;51.480;6.872;2022-07-23T05:32:17;26.30;46.00
17296;DHT22;8766;51.480;6.872;2022-07-23T05:34:44;26.90;45.30
17296;DHT22;8766;51.480;6.872;2022-07-23T05:37:11;27.40;44.60
17296;DHT22;8766;51.480;6.872;2022-07-23T05:39:38;27.80;44.10
17296;DHT22;8766;51.480;6.872;2022-07-23T05:42:07;28.30;43.70
17296;DHT22;8766;51.480;6.872;2022-07-23T05:44:34;28.60;43.20
17296;DHT22;8766;51.480;6.872;2022-07-23T05:47:01;29.00;43.50
17296;DHT22;8766;51.480;6.872;2022-07-23T05:49:28;29.40;42.70
17296;DHT22;8766;51.480;6.872;2022-07-23T05:51:55;29.70;42.30
17296;DHT22;8766;51.480;6.872;2022-07-23T05:54:22;30.00;42.10
17296;DHT22;8766;51.480;6.872;2022-07-23T05:56:49;30.30;41.90
17296;DHT22;8766;51.480;6.872;2022-07-23T05:59:19;30.60;41.60
17296;DHT22;8766;51.480;6.872;2022-07-23T06:01:46;30.90;41.20
17296;DHT22;8766;51.480;6.872;2022-07-23T06:04:13;31.30;40.90
17296;DHT22;8766;51.480;6.872;2022-07-23T06:06:40;31.60;40.70
17296;DHT22;8766;51.480;6.872;2022-07-23T06:09:07;31.80;40.50
17296;DHT22;8766;51.480;6.872;2022-07-23T06:11:35;32.10;40.30
17296;DHT22;8766;51.480;6.872;2022-07-23T06:14:02;32.40;40.00
17296;DHT22;8766;51.480;6.872;2022-07-23T06:16:31;32.70;39.80
17296;DHT22;8766;51.480;6.872;2022-07-23T06:18:58;32.90;39.70
17296;DHT22;8766;51.480;6.872;2022-07-23T06:21:25;33.20;39.40
17296;DHT22;8766;51.480;6.872;2022-07-23T06:23:52;33.50;39.20
17296;DHT22;8766;51.480;6.872;2022-07-23T06:26:19;33.80;39.00
17296;DHT22;8766;51.480;6.872;2022-07-23T06:28:45;34.10;38.80
17296;DHT22;8766;51.480;6.872;2022-07-23T06:31:12;34.30;38.60
17296;DHT22;8766;51.480;6.872;2022-07-23T06:33:41;34.60;38.40
17296;DHT22;8766;51.480;6.872;2022-07-23T06:36:08;34.90;38.20
17296;DHT22;8766;51.480;6.872;2022-07-23T06:38:35;35.10;38.00
17296;DHT22;8766;51.480;6.872;2022-07-23T06:41:02;35.30;37.80
17296;DHT22;8766;51.480;6.872;2022-07-23T06:43:30;35.50;37.80
17296;DHT22;8766;51.480;6.872;2022-07-23T06:45:57;35.60;37.70
17296;DHT22;8766;51.480;6.872;2022-07-23T06:48:24;35.70;37.80
17296;DHT22;8766;51.480;6.872;2022-07-23T06:50:53;35.70;37.70
17296;DHT22;8766;51.480;6.872;2022-07-23T06:53:20;35.90;37.70
17296;DHT22;8766;51.480;6.872;2022-07-23T06:55:47;36.00;37.60
17296;DHT22;8766;51.480;6.872;2022-07-23T06:58:14;36.10;37.60
17296;DHT22;8766;51.480;6.872;2022-07-23T07:00:41;36.10;37.70
17296;DHT22;8766;51.480;6.872;2022-07-23T07:03:08;36.00;38.00
17296;DHT22;8766;51.480;6.872;2022-07-23T07:05:35;36.30;37.70
17296;DHT22;8766;51.480;6.872;2022-07-23T07:08:04;36.70;37.30
17296;DHT22;8766;51.480;6.872;2022-07-23T07:10:31;37.10;37.00
17296;DHT22;8766;51.480;6.872;2022-07-23T07:12:58;37.40;36.70
17296;DHT22;8766;51.480;6.872;2022-07-23T07:15:25;37.70;36.50
17296;DHT22;8766;51.480;6.872;2022-07-23T07:17:52;37.90;36.10
17296;DHT22;8766;51.480;6.872;2022-07-23T07:20:19;38.20;36.00
17296;DHT22;8766;51.480;6.872;2022-07-23T07:22:46;38.30;36.00
17296;DHT22;8766;51.480;6.872;2022-07-23T07:25:15;38.50;35.90
17296;DHT22;8766;51.480;6.872;2022-07-23T07:27:42;38.30;36.30
17296;DHT22;8766;51.480;6.872;2022-07-23T07:30:10;38.40;36.20
17296;DHT22;8766;51.480;6.872;2022-07-23T07:32:37;38.80;35.90
17296;DHT22;8766;51.480;6.872;2022-07-23T07:35:04;38.90;35.80
17296;DHT22;8766;51.480;6.872;2022-07-23T07:37:32;39.30;35.60
17296;DHT22;8766;51.480;6.872;2022-07-23T07:39:59;39.60;35.30
17296;DHT22;8766;51.480;6.872;2022-07-23T07:42:27;39.20;35.90
17296;DHT22;8766;51.480;6.872;2022-07-23T07:44:54;38.80;36.30
17296;DHT22;8766;51.480;6.872;2022-07-23T07:47:21;39.00;36.10
17296;DHT22;8766;51.480;6.872;2022-07-23T07:49:48;38.90;36.20
17296;DHT22;8766;51.480;6.872;2022-07-23T07:52:15;39.30;36.00
17296;DHT22;8766;51.480;6.872;2022-07-23T07:54:42;39.60;35.80
17296;DHT22;8766;51.480;6.872;2022-07-23T07:57:09;39.70;35.60
17296;DHT22;8766;51.480;6.872;2022-07-23T07:59:37;39.90;35.50
17296;DHT22;8766;51.480;6.872;2022-07-23T08:02:04;40.00;35.40
17296;DHT22;8766;51.480;6.872;2022-07-23T08:04:31;40.10;35.40
17296;DHT22;8766;51.480;6.872;2022-07-23T08:06:58;40.40;35.00
17296;DHT22;8766;51.480;6.872;2022-07-23T08:09:25;40.70;34.80
17296;DHT22;8766;51.480;6.872;2022-07-23T08:11:52;40.90;34.60
17296;DHT22;8766;51.480;6.872;2022-07-23T08:14:19;41.10;34.40
17296;DHT22;8766;51.480;6.872;2022-07-23T08:16:47;41.40;34.30
17296;DHT22;8766;51.480;6.872;2022-07-23T08:19:14;41.50;34.10
17296;DHT22;8766;51.480;6.872;2022-07-23T08:21:41;41.70;33.90
17296;DHT22;8766;51.480;6.872;2022-07-23T08:24:08;41.70;34.00
17296;DHT22;8766;51.480;6.872;2022-07-23T08:26:35;41.70;34.10
17296;DHT22;8766;51.480;6.872;2022-07-23T08:29:02;41.70;34.10
17296;DHT22;8766;51.480;6.872;2022-07-23T08:31:29;41.70;34.00
17296;DHT22;8766;51.480;6.872;2022-07-23T08:33:59;41.80;33.90
17296;DHT22;8766;51.480;6.872;2022-07-23T08:36:28;41.70;33.80
17296;DHT22;8766;51.480;6.872;2022-07-23T08:38:57;41.60;33.90
17296;DHT22;8766;51.480;6.872;2022-07-23T08:41:24;41.40;34.10
17296;DHT22;8766;51.480;6.872;2022-07-23T08:43:51;41.30;34.00
17296;DHT22;8766;51.480;6.872;2022-07-23T08:46:19;41.20;34.00
17296;DHT22;8766;51.480;6.872;2022-07-23T08:48:48;41.10;34.00
17296;DHT22;8766;51.480;6.872;2022-07-23T08:51:17;40.80;34.00
17296;DHT22;8766;51.480;6.872;2022-07-23T08:53:44;40.70;34.00
17296;DHT22;8766;51.480;6.872;2022-07-23T08:56:12;40.60;34.00
17296;DHT22;8766;51.480;6.872;2022-07-23T08:58:39;40.40;34.00
17296;DHT22;8766;51.480;6.872;2022-07-23T09:01:06;40.30;33.90
17296;DHT22;8766;51.480;6.872;2022-07-23T09:03:34;40.00;34.00
17296;DHT22;8766;51.480;6.872;2022-07-23T09:06:01;39.30;34.50
17296;DHT22;8766;51.480;6.872;2022-07-23T09:08:36;38.40;35.60
17296;DHT22;8766;51.480;6.872;2022-07-23T09:11:04;37.40;36.70
17296;DHT22;8766;51.480;6.872;2022-07-23T09:13:37;36.60;37.80
17296;DHT22;8766;51.480;6.872;2022-07-23T09:16:06;35.80;38.90
17296;DHT22;8766;51.480;6.872;2022-07-23T09:18:45;35.00;39.90
17296;DHT22;8766;51.480;6.872;2022-07-23T09:21:15;34.40;40.70
17296;DHT22;8766;51.480;6.872;2022-07-23T09:23:45;33.90;41.20
17296;DHT22;8766;51.480;6.872;2022-07-23T09:26:24;33.40;41.80
17296;DHT22;8766;51.480;6.872;2022-07-23T09:28:53;32.80;42.50
17296;DHT22;8766;51.480;6.872;2022-07-23T09:31:21;32.30;43.20
17296;DHT22;8766;51.480;6.872;2022-07-23T09:33:48;32.00;43.60
17296;DHT22;8766;51.480;6.872;2022-07-23T09:36:15;31.80;43.70
17296;DHT22;8766;51.480;6.872;2022-07-23T09:38:50;31.60;43.80
17296;DHT22;8766;51.480;6.872;2022-07-23T09:41:17;31.40;44.00
17296;DHT22;8766;51.480;6.872;2022-07-23T09:43:44;31.20;44.20
17296;DHT22;8766;51.480;6.872;2022-07-23T09:46:22;31.00;44.40
17296;DHT22;8766;51.480;6.872;2022-07-23T09:48:50;30.70;44.70
17296;DHT22;8766;51.480;6.872;2022-07-23T09:51:18;30.50;45.00
17296;DHT22;8766;51.480;6.872;2022-07-23T09:53:50;30.20;45.30
17296;DHT22;8766;51.480;6.872;2022-07-23T09:56:18;30.00;45.50
17296;DHT22;8766;51.480;6.872;2022-07-23T09:58:46;29.80;45.70
17296;DHT22;8766;51.480;6.872;2022-07-23T10:01:16;29.50;46.00
17296;DHT22;8766;51.480;6.872;2022-07-23T10:03:43;29.40;46.20
17296;DHT22;8766;51.480;6.872;2022-07-23T10:06:13;29.30;46.20
17296;DHT22;8766;51.480;6.872;2022-07-23T10:08:41;29.20;46.30
17296;DHT22;8766;51.480;6.872;2022-07-23T10:11:11;29.00;46.50
17296;DHT22;8766;51.480;6.872;2022-07-23T10:13:40;29.00;46.30
17296;DHT22;8766;51.480;6.872;2022-07-23T10:16:27;28.80;46.40
17296;DHT22;8766;51.480;6.872;2022-07-23T10:18:54;28.80;46.30
17296;DHT22;8766;51.480;6.872;2022-07-23T10:21:25;28.90;46.20
17296;DHT22;8766;51.480;6.872;2022-07-23T10:24:04;29.00;46.00
17296;DHT22;8766;51.480;6.872;2022-07-23T10:26:44;29.00;45.80
17296;DHT22;8766;51.480;6.872;2022-07-23T10:29:23;29.10;45.70
17296;DHT22;8766;51.480;6.872;2022-07-23T10:31:58;29.10;45.60
17296;DHT22;8766;51.480;6.872;2022-07-23T10:34:36;29.00;45.60
17296;DHT22;8766;51.480;6.872;2022-07-23T10:37:12;29.10;45.60
17296;DHT22;8766;51.480;6.872;2022-07-23T10:39:43;29.10;45.40
17296;DHT22;8766;51.480;6.872;2022-07-23T10:42:13;29.10;45.30
17296;DHT22;8766;51.480;6.872;2022-07-23T10:44:42;29.10;45.30
17296;DHT22;8766;51.480;6.872;2022-07-23T10:47:10;29.10;45.30
17296;DHT22;8766;51.480;6.872;2022-07-23T10:50:18;29.00;45.30
17296;DHT22;8766;51.480;6.872;2022-07-23T10:53:13;29.00;45.30
17296;DHT22;8766;51.480;6.872;2022-07-23T10:55:49;29.00;45.20
17296;DHT22;8766;51.480;6.872;2022-07-23T10:58:49;29.00;45.20
17296;DHT22;8766;51.480;6.872;2022-07-23T11:01:33;28.90;45.30
17296;DHT22;8766;51.480;6.872;2022-07-23T11:04:00;28.90;45.20
17296;DHT22;8766;51.480;6.872;2022-07-23T11:09:28;29.00;45.10
17296;DHT22;8766;51.480;6.872;2022-07-23T11:15:00;28.80;45.20
17296;DHT22;8766;51.480;6.872;2022-07-23T11:17:27;28.80;45.10
17296;DHT22;8766;51.480;6.872;2022-07-23T11:20:16;28.90;45.10
17296;DHT22;8766;51.480;6.872;2022-07-23T11:22:51;28.90;45.00
17296;DHT22;8766;51.480;6.872;2022-07-23T11:25:35;28.90;45.00
17296;DHT22;8766;51.480;6.872;2022-07-23T11:28:16;28.90;45.00
17296;DHT22;8766;51.480;6.872;2022-07-23T11:30:48;28.80;45.00
17296;DHT22;8766;51.480;6.872;2022-07-23T11:33:21;28.80;45.00
17296;DHT22;8766;51.480;6.872;2022-07-23T11:36:06;28.80;44.90
17296;DHT22;8766;51.480;6.872;2022-07-23T11:38:33;28.90;44.90
17296;DHT22;8766;51.480;6.872;2022-07-23T11:41:02;28.90;44.70
17296;DHT22;8766;51.480;6.872;2022-07-23T11:43:29;28.90;44.80
17296;DHT22;8766;51.480;6.872;2022-07-23T11:45:59;28.90;44.80
17296;DHT22;8766;51.480;6.872;2022-07-23T11:48:28;28.90;44.70
17296;DHT22;8766;51.480;6.872;2022-07-23T11:50:57;28.90;44.60
17296;DHT22;8766;51.480;6.872;2022-07-23T11:53:25;28.80;44.70
17296;DHT22;8766;51.480;6.872;2022-07-23T11:55:53;28.70;44.80
17296;DHT22;8766;51.480;6.872;2022-07-23T11:58:21;28.70;44.80
17296;DHT22;8766;51.480;6.872;2022-07-23T12:00:48;28.80;44.90
17296;DHT22;8766;51.480;6.872;2022-07-23T12:03:17;28.80;44.70
17296;DHT22;8766;51.480;6.872;2022-07-23T12:05:44;28.80;44.70
17296;DHT22;8766;51.480;6.872;2022-07-23T12:08:11;28.80;45.20
17296;DHT22;8766;51.480;6.872;2022-07-23T12:10:41;28.80;44.70
17296;DHT22;8766;51.480;6.872;2022-07-23T12:13:10;28.70;44.70
17296;DHT22;8766;51.480;6.872;2022-07-23T12:15:39;28.80;44.60
17296;DHT22;8766;51.480;6.872;2022-07-23T12:18:10;28.80;44.60
17296;DHT22;8766;51.480;6.872;2022-07-23T12:20:40;28.90;44.60
17296;DHT22;8766;51.480;6.872;2022-07-23T12:23:10;28.90;44.50
17296;DHT22;8766;51.480;6.872;2022-07-23T12:25:40;28.90;44.50
17296;DHT22;8766;51.480;6.872;2022-07-23T12:28:11;28.90;44.50
17296;DHT22;8766;51.480;6.872;2022-07-23T12:30:39;28.80;44.50
17296;DHT22;8766;51.480;6.872;2022-07-23T12:33:09;28.80;44.50
17296;DHT22;8766;51.480;6.872;2022-07-23T12:35:39;28.80;44.50
17296;DHT22;8766;51.480;6.872;2022-07-23T12:38:09;28.80;44.50
17296;DHT22;8766;51.480;6.872;2022-07-23T12:40:41;28.70;44.60
17296;DHT22;8766;51.480;6.872;2022-07-23T12:43:10;28.60;44.60
17296;DHT22;8766;51.480;6.872;2022-07-23T12:45:46;28.60;44.80
17296;DHT22;8766;51.480;6.872;2022-07-23T12:48:19;28.50;44.90
17296;DHT22;8766;51.480;6.872;2022-07-23T12:50:54;28.50;44.90
17296;DHT22;8766;51.480;6.872;2022-07-23T12:53:24;28.40;44.90
17296;DHT22;8766;51.480;6.872;2022-07-23T12:55:58;28.30;45.10
17296;DHT22;8766;51.480;6.872;2022-07-23T12:58:26;28.20;45.30
17296;DHT22;8766;51.480;6.872;2022-07-23T13:00:59;28.20;45.20
17296;DHT22;8766;51.480;6.872;2022-07-23T13:03:32;28.30;44.90
17296;DHT22;8766;51.480;6.872;2022-07-23T13:06:02;28.40;44.70
17296;DHT22;8766;51.480;6.872;2022-07-23T13:08:31;28.40;44.70
17296;DHT22;8766;51.480;6.872;2022-07-23T13:10:58;28.30;45.00
17296;DHT22;8766;51.480;6.872;2022-07-23T13:13:27;28.20;45.00
17296;DHT22;8766;51.480;6.872;2022-07-23T13:15:54;28.20;45.00
17296;DHT22;8766;51.480;6.872;2022-07-23T13:18:21;28.30;44.90
17296;DHT22;8766;51.480;6.872;2022-07-23T13:20:49;28.20;44.90
17296;DHT22;8766;51.480;6.872;2022-07-23T13:23:18;28.10;45.20
17296;DHT22;8766;51.480;6.872;2022-07-23T13:25:46;28.00;45.20
17296;DHT22;8766;51.480;6.872;2022-07-23T13:28:13;28.10;45.10
17296;DHT22;8766;51.480;6.872;2022-07-23T13:30:41;28.20;44.80
17296;DHT22;8766;51.480;6.872;2022-07-23T13:33:08;28.30;44.70
17296;DHT22;8766;51.480;6.872;2022-07-23T13:35:37;28.30;44.70
17296;DHT22;8766;51.480;6.872;2022-07-23T13:38:05;28.20;44.80
17296;DHT22;8766;51.480;6.872;2022-07-23T13:40:36;28.30;44.70
17296;DHT22;8766;51.480;6.872;2022-07-23T13:43:04;28.40;44.60
17296;DHT22;8766;51.480;6.872;2022-07-23T13:45:31;28.50;44.40
17296;DHT22;8766;51.480;6.872;2022-07-23T13:47:58;28.60;44.80
17296;DHT22;8766;51.480;6.872;2022-07-23T13:50:25;28.70;44.10
17296;DHT22;8766;51.480;6.872;2022-07-23T13:52:52;28.90;44.00
17296;DHT22;8766;51.480;6.872;2022-07-23T13:55:19;29.00;43.80
17296;DHT22;8766;51.480;6.872;2022-07-23T13:57:48;29.10;43.60
17296;DHT22;8766;51.480;6.872;2022-07-23T14:00:15;29.20;43.50
17296;DHT22;8766;51.480;6.872;2022-07-23T14:02:42;29.20;43.40
17296;DHT22;8766;51.480;6.872;2022-07-23T14:05:10;29.30;43.40
17296;DHT22;8766;51.480;6.872;2022-07-23T14:07:37;29.30;43.30
17296;DHT22;8766;51.480;6.872;2022-07-23T14:10:06;29.40;43.30
17296;DHT22;8766;51.480;6.872;2022-07-23T14:12:34;29.40;43.10
17296;DHT22;8766;51.480;6.872;2022-07-23T14:15:02;29.40;43.00
17296;DHT22;8766;51.480;6.872;2022-07-23T14:17:30;29.40;43.00
17296;DHT22;8766;51.480;6.872;2022-07-23T14:19:57;29.50;43.10
17296;DHT22;8766;51.480;6.872;2022-07-23T14:22:24;29.50;43.00
17296;DHT22;8766;51.480;6.872;2022-07-23T14:24:51;29.50;43.00
17296;DHT22;8766;51.480;6.872;2022-07-23T14:27:18;29.50;43.00
17296;DHT22;8766;51.480;6.872;2022-07-23T14:29:45;29.60;42.90
17296;DHT22;8766;51.480;6.872;2022-07-23T14:32:13;29.70;42.90
17296;DHT22;8766;51.480;6.872;2022-07-23T14:34:40;29.60;42.80
17296;DHT22;8766;51.480;6.872;2022-07-23T14:37:08;29.60;42.90
17296;DHT22;8766;51.480;6.872;2022-07-23T14:39:35;29.70;42.90
17296;DHT22;8766;51.480;6.872;2022-07-23T14:42:03;29.70;42.80
17296;DHT22;8766;51.480;6.872;2022-07-23T14:44:30;29.70;42.70
17296;DHT22;8766;51.480;6.872;2022-07-23T14:46:57;29.70;42.70
17296;DHT22;8766;51.480;6.872;2022-07-23T14:49:26;29.70;42.70
17296;DHT22;8766;51.480;6.872;2022-07-23T14:51:54;29.70;42.70
17296;DHT22;8766;51.480;6.872;2022-07-23T14:54:21;29.80;42.70
17296;DHT22;8766;51.480;6.872;2022-07-23T14:56:48;29.70;42.70
17296;DHT22;8766;51.480;6.872;2022-07-23T14:59:15;29.70;42.80
17296;DHT22;8766;51.480;6.872;2022-07-23T15:01:42;29.70;42.90
17296;DHT22;8766;51.480;6.872;2022-07-23T15:04:09;29.60;42.90
17296;DHT22;8766;51.480;6.872;2022-07-23T15:06:37;29.60;42.90
17296;DHT22;8766;51.480;6.872;2022-07-23T15:09:04;29.60;42.90
17296;DHT22;8766;51.480;6.872;2022-07-23T15:11:31;29.60;42.90
17296;DHT22;8766;51.480;6.872;2022-07-23T15:14:00;29.70;42.80
17296;DHT22;8766;51.480;6.872;2022-07-23T15:16:27;29.80;42.70
17296;DHT22;8766;51.480;6.872;2022-07-23T15:18:54;29.90;42.60
17296;DHT22;8766;51.480;6.872;2022-07-23T15:21:21;29.90;42.40
17296;DHT22;8766;51.480;6.872;2022-07-23T15:23:50;30.00;42.40
17296;DHT22;8766;51.480;6.872;2022-07-23T15:26:18;30.10;42.30
17296;DHT22;8766;51.480;6.872;2022-07-23T15:28:45;30.10;42.30
17296;DHT22;8766;51.480;6.872;2022-07-23T15:31:12;30.10;42.30
17296;DHT22;8766;51.480;6.872;2022-07-23T15:33:39;30.00;42.30
17296;DHT22;8766;51.480;6.872;2022-07-23T15:36:07;29.80;42.60
17296;DHT22;8766;51.480;6.872;2022-07-23T15:38:35;29.60;42.80
17296;DHT22;8766;51.480;6.872;2022-07-23T15:41:03;29.50;43.00
17296;DHT22;8766;51.480;6.872;2022-07-23T15:43:30;29.60;43.00
17296;DHT22;8766;51.480;6.872;2022-07-23T15:45:57;29.60;42.90
17296;DHT22;8766;51.480;6.872;2022-07-23T15:48:24;29.60;42.90
17296;DHT22;8766;51.480;6.872;2022-07-23T15:50:51;29.50;42.90
17296;DHT22;8766;51.480;6.872;2022-07-23T15:53:18;29.50;43.10
17296;DHT22;8766;51.480;6.872;2022-07-23T15:55:46;29.40;43.10
17296;DHT22;8766;51.480;6.872;2022-07-23T15:58:15;29.40;43.10